Flight Track Log - Related Links

Times and Time Zones

All times are in EDT time to prevent confusion due to time zone crossing. See the RPA3321 flight status page for this flight to view local times or setup timezone preferences in your user account.

Time Position Orientation Groundspeed Altitude Reporting Facility
EDT Latitude Longitude Course Direction KTS MPH feet Rate Location/Type
Wed 05:37:18 AM 42.7319 -73.8053 120° Southeast 154 177 1,300  Level Boston Center
Wed 05:38:07 AM 42.7044 -73.8358 219° Southwest 185 213 2,100 1,964 Climbing Boston Center
Wed 05:39:00 AM 42.5189 -74.0063 171° South  Level Estimated
Wed 05:40:00 AM 42.4421 -74.0741 180° South  Level Estimated
Wed 05:40:06 AM 42.7992 -73.9342 323° Northwest 263 303 6,800  Level Boston Center
Wed 05:41:00 AM 42.3653 -74.1417 172° South  Level Estimated
Wed 05:41:06 AM 42.8461 -74.0061 312° West 257 296 9,500  Level Boston Center
Wed 05:42:00 AM 42.3192 -74.0346 120° Southeast  Level FlightAware Approximate
Wed 05:42:06 AM 42.8406 -74.1022 266° West 236 272 11,700  Level Boston Center
Wed 05:43:06 AM 42.7614 -74.0889 173° South 195 224 14,000 1,850 Climbing Boston Center
Wed 05:44:06 AM 42.6953 -74.0644 165° South 214 246 15,400 1,900 Climbing Boston Center
Wed 05:45:06 AM 42.5794 -73.9994 158° South 337 388 17,800 1,950 Climbing Boston Center
Wed 05:46:06 AM 42.4736 -73.9489 161° South 371 427 19,300 1,400 Climbing Boston Center
Wed 05:47:06 AM 42.3744 -73.9014 161° South 376 433 20,600 1,200 Climbing Boston Center
Wed 05:48:06 AM 42.2728 -73.8514 160° South 383 441 21,700 1,150 Climbing Boston Center
Wed 05:49:06 AM 42.1672 -73.7986 160° South 389 448 22,900 1,150 Climbing Boston Center
Wed 05:50:06 AM 42.0636 -73.7489 160° South 389 448 24,000 1,000 Climbing Boston Center
Wed 05:51:06 AM 41.9578 -73.6992 161° South 394 453 24,900 1,000 Climbing Boston Center
Wed 05:52:06 AM 41.8431 -73.7025 181° South 399 459 26,000 550 Climbing Boston Center
Wed 05:53:06 AM 41.7450 -73.7172 186° South 398 458 26,000  Level Boston Center
Wed 05:55:17 AM 41.4836 -73.7786 190° South 448 516 26,000  Level New York Center
Wed 05:56:15 AM 41.3833 -73.8708 215° Southwest 431 496 26,000  Level New York Center
Wed 05:57:16 AM 41.2853 -73.9600 214° Southwest 431 496 26,000  Level New York Center
Wed 05:58:17 AM 41.1869 -74.0492 214° Southwest 436 502 26,000  Level New York Center
Wed 05:59:14 AM 41.0908 -74.1353 214° Southwest 436 502 26,000  Level New York Center
Wed 06:00:15 AM 40.9989 -74.2158 213° Southwest 436 502 26,000  Level New York Center
Wed 06:01:16 AM 40.8983 -74.3042 214° Southwest 436 502 26,000  Level New York Center
Wed 06:02:17 AM 40.8019 -74.3950 216° Southwest 441 507 26,000  Level New York Center
Wed 06:03:16 AM 40.7253 -74.5114 229° Southwest 434 499 26,000  Level New York Center
Wed 06:04:15 AM 40.6506 -74.6306 230° Southwest 427 491 26,000  Level New York Center
Wed 06:05:16 AM 40.5778 -74.7522 232° Southwest 427 491 26,000  Level New York Center
Wed 06:06:17 AM 40.4969 -74.8647 227° Southwest 427 491 26,000  Level New York Center
Wed 06:07:16 AM 40.4178 -74.9800 228° Southwest 427 491 26,000 -600 Level New York Center
Wed 06:08:17 AM 40.3367 -75.0922 227° Southwest 433 498 24,800 -1,300 Descending New York Center
Wed 06:09:16 AM 40.2597 -75.2017 227° Southwest 427 491 23,400 -1,300 Descending New York Center
Wed 06:10:17 AM 40.1825 -75.3081 226° Southwest 422 486 22,200 -706 Descending New York Center
Wed 06:11:15 AM 40.1094 -75.4172 229° Southwest 417 480 22,000 -101 Descending New York Center
Wed 06:12:16 AM 40.0383 -75.5292 230° Southwest 412 474 22,000  Level New York Center
Wed 06:13:15 AM 39.9672 -75.6381 230° Southwest 412 474 22,000 -250 Level New York Center
Wed 06:14:16 AM 39.8958 -75.7522 231° Southwest 412 474 21,500 -992 Descending New York Center
Wed 06:15:16 AM 39.8267 -75.8553 229° Southwest 407 468 20,000 -1,516 Descending New York Center
Wed 06:17:18 AM 39.6833 -76.0667 229° Southwest 367 422 16,900 -1,484 Descending Potomac TRACON
Wed 06:18:18 AM 39.6167 -76.1667 229° Southwest 354 407 15,500 -1,400 Descending Potomac TRACON
Wed 06:19:18 AM 39.5500 -76.2667 229° Southwest 348 400 14,100 -1,316 Descending Potomac TRACON
Wed 06:20:12 AM 39.5000 -76.3500 232° Southwest 340 391 13,000 -1,050 Descending Potomac TRACON
Wed 06:21:18 AM 39.4167 -76.4500 223° Southwest 337 388 12,000 -476 Descending Potomac TRACON
Wed 06:22:18 AM 39.3333 -76.5167 212° Southwest 340 391 12,000 -158 Level Potomac TRACON
Wed 06:23:12 AM 39.2833 -76.5667 218° Southwest 335 386 11,700 -789 Descending Potomac TRACON
Wed 06:24:12 AM 39.2000 -76.6333 212° Southwest 292 336 10,500 -850 Descending Potomac TRACON
Wed 06:25:12 AM 39.1500 -76.7000 226° Southwest 281 323 10,000 -350 Descending Potomac TRACON
Wed 06:26:12 AM 39.0833 -76.7667 218° Southwest 280 322 9,800 -1,000 Descending Potomac TRACON
Wed 06:27:12 AM 39.0333 -76.8333 226° Southwest 276 318 8,000 -1,800 Descending Potomac TRACON
Wed 06:28:12 AM 38.9667 -76.9000 218° Southwest 272 313 6,200 -1,111 Descending Potomac TRACON
Wed 06:29:00 AM 38.9167 -76.9333 207° Southwest 278 320 6,000 -611 Descending Potomac TRACON
Wed 06:30:00 AM 38.8500 -76.9500 191° South 285 328 5,100 -1,250 Descending Potomac TRACON
Wed 06:31:00 AM 38.7667 -76.9500 180° South 278 320 3,500 -1,050 Descending Potomac TRACON
Wed 06:32:00 AM 38.7000 -76.9500 180° South 243 280 3,000 -263 Descending Potomac TRACON
Wed 06:32:54 AM 38.6833 -77.0000 247° West 183 211 3,000 -278 Level Potomac TRACON
Wed 06:33:48 AM 38.7167 -77.0167 339° North 170 196 2,500 -556 Descending Potomac TRACON

Login

Don't have an account? Register now (free) for customized features, flight alerts, and more!